Time;durP1;ratioP1;P1;durP2;ratioP2;P2;SDS_P1;SDS_P2;PMS_P1;PMS_P2;Temp;Humidity;BMP_temperature;BMP_pressure;BME280_temperature;BME280_humidity;BME280_pressure;Samples;Min_cycle;Max_cycle;Signal;HPM_P1;HPM_P2
2022/11/11 00:01:15;;;;;;;15.73;7.60;;;14.20;75.00;;;;;;7399867;19;20405;-81
2022/11/11 00:03:47;;;;;;;17.02;7.50;;;14.20;75.20;;;;;;7377618;19;20014;-81
2022/11/11 00:06:17;;;;;;;14.20;7.55;;;14.00;75.40;;;;;;7377025;19;20056;-81
2022/11/11 00:08:49;;;;;;;15.57;7.03;;;14.00;75.50;;;;;;7378842;19;20095;-81
2022/11/11 00:11:18;;;;;;;19.25;7.25;;;14.00;75.70;;;;;;7377762;19;20086;-81
2022/11/11 00:13:47;;;;;;;11.60;6.90;;;14.10;75.80;;;;;;7375309;19;20113;-80
2022/11/11 00:16:18;;;;;;;18.95;7.57;;;14.10;75.80;;;;;;7398553;19;20098;-80
2022/11/11 00:27:06;;;;;;;19.50;7.07;;;14.10;76.00;;;;;;7379733;19;20465;-81
2022/11/11 00:29:34;;;;;;;12.95;5.97;;;14.10;75.90;;;;;;7393669;19;20014;-80
2022/11/11 00:35:52;;;;;;;14.65;6.32;;;14.10;76.00;;;;;;7408977;19;20074;-79
2022/11/11 00:37:33;;;;;;;24.58;6.82;;;14.10;76.10;;;;;;7405958;19;20028;-80
2022/11/11 00:40:02;;;;;;;17.10;5.93;;;14.10;76.00;;;;;;7378058;19;20673;-81
2022/11/11 00:42:31;;;;;;;16.23;5.85;;;14.10;76.30;;;;;;7376051;19;20007;-80
2022/11/11 00:45:00;;;;;;;16.67;6.30;;;14.10;76.30;;;;;;7374654;19;20031;-80
2022/11/11 00:52:57;;;;;;;16.15;6.32;;;14.00;77.10;;;;;;7375485;19;20026;-80
2022/11/11 00:55:25;;;;;;;12.60;5.75;;;14.00;76.50;;;;;;7395195;19;20094;-80
2022/11/11 00:57:54;;;;;;;17.17;6.72;;;14.00;76.60;;;;;;7372471;19;20533;-80
2022/11/11 01:00:23;;;;;;;14.48;6.53;;;14.00;76.70;;;;;;7375166;19;20643;-80
2022/11/11 01:02:51;;;;;;;11.77;6.53;;;14.00;76.70;;;;;;7374524;19;20048;-81
2022/11/11 01:05:23;;;;;;;16.60;6.63;;;14.00;76.70;;;;;;7374627;19;20031;-81
2022/11/11 01:07:52;;;;;;;13.23;6.15;;;14.00;76.60;;;;;;7376345;19;20089;-80
2022/11/11 01:13:13;;;;;;;;;;;14.10;76.40;;;;;;7374997;19;20011;-81
2022/11/11 01:15:42;;;;;;;19.85;6.88;;;14.20;76.60;;;;;;7374039;19;19921;-81
2022/11/11 01:18:12;;;;;;;17.73;6.55;;;14.20;76.30;;;;;;7373886;19;20104;-81
2022/11/11 01:20:44;;;;;;;17.05;6.30;;;14.20;76.30;;;;;;7375155;19;20058;-81
2022/11/11 01:23:14;;;;;;;13.95;6.60;;;14.20;76.20;;;;;;7372309;19;20110;-80
2022/11/11 01:25:45;;;;;;;25.73;13.20;;;14.20;76.20;;;;;;7394197;19;20041;-80
2022/11/11 01:28:13;;;;;;;11.82;5.88;;;14.20;76.20;;;;;;7376528;19;20447;-80
2022/11/11 01:30:42;;;;;;;20.23;6.53;;;14.20;76.10;;;;;;7372448;19;20105;-80
2022/11/11 01:33:12;;;;;;;10.73;5.60;;;14.10;75.70;;;;;;7374151;19;20105;-81
2022/11/11 01:35:44;;;;;;;13.18;5.65;;;14.10;76.00;;;;;;7374824;19;20010;-81
2022/11/11 01:38:13;;;;;;;13.70;6.22;;;14.00;75.90;;;;;;7376586;19;20086;-81
2022/11/11 01:40:45;;;;;;;13.50;6.43;;;14.00;76.00;;;;;;7397990;19;20432;-81
2022/11/11 01:43:23;;;;;;;12.80;6.57;;;13.90;75.90;;;;;;7374923;19;20086;-80
2022/11/11 01:46:00;;;;;;;12.65;7.00;;;13.90;75.90;;;;;;7375121;19;20463;-81
2022/11/11 01:51:26;;;;;;;16.88;7.20;;;13.80;75.90;;;;;;7375053;19;20097;-81
2022/11/11 01:54:00;;;;;;;14.50;6.60;;;13.70;76.30;;;;;;7374222;19;20097;-81
2022/11/11 01:56:29;;;;;;;12.63;6.65;;;13.70;76.50;;;;;;7376865;19;20067;-81
2022/11/11 01:59:06;;;;;;;18.02;7.07;;;13.70;76.60;;;;;;7372847;19;20003;-81
2022/11/11 02:01:37;;;;;;;13.15;6.72;;;13.70;76.70;;;;;;7393337;19;20015;-81
2022/11/11 02:06:55;;;;;;;20.02;6.90;;;13.80;76.70;;;;;;7372890;19;20010;-81
2022/11/11 02:09:26;;;;;;;14.25;6.97;;;13.80;76.50;;;;;;7372398;19;20022;-81
2022/11/11 02:14:42;;;;;;;13.45;6.95;;;13.90;76.20;;;;;;7373614;19;20018;-81
2022/11/11 02:17:15;;;;;;;17.45;6.55;;;13.90;76.10;;;;;;7371690;19;20018;-81
2022/11/11 02:19:51;;;;;;;17.75;7.57;;;13.90;75.90;;;;;;7393907;19;20110;-81
2022/11/11 02:22:28;;;;;;;14.90;7.40;;;13.90;76.10;;;;;;7376253;19;20018;-81
2022/11/11 02:25:02;;;;;;;16.70;7.35;;;14.00;76.10;;;;;;7378835;19;20031;-79
2022/11/11 02:27:33;;;;;;;21.70;8.02;;;14.00;76.00;;;;;;7371279;19;20454;-81
2022/11/11 02:30:03;;;;;;;21.02;8.27;;;14.00;75.80;;;;;;7372920;19;20018;-81
2022/11/11 02:32:32;;;;;;;15.75;7.35;;;14.00;75.50;;;;;;7370953;19;20050;-80
2022/11/11 02:35:00;;;;;;;25.58;8.20;;;14.00;75.50;;;;;;7372777;19;20034;-80
2022/11/11 02:37:29;;;;;;;19.48;7.63;;;14.00;76.10;;;;;;7394226;19;20090;-80
2022/11/11 02:40:06;;;;;;;16.75;7.57;;;14.00;75.50;;;;;;7371053;19;20020;-80
2022/11/11 02:42:34;;;;;;;15.23;6.97;;;14.00;75.60;;;;;;7373197;19;20553;-81
2022/11/11 02:45:03;;;;;;;19.33;7.47;;;14.10;75.70;;;;;;7373326;19;20082;-80
2022/11/11 02:47:32;;;;;;;16.25;7.55;;;14.10;75.50;;;;;;7374473;19;20030;-80
2022/11/11 02:50:00;;;;;;;17.77;8.65;;;14.10;75.40;;;;;;7373507;19;20732;-80
2022/11/11 02:52:29;;;;;;;23.30;8.52;;;14.10;75.30;;;;;;7394586;19;20091;-80
2022/11/11 02:55:00;;;;;;;18.20;7.95;;;14.10;75.20;;;;;;7373089;19;20011;-81
2022/11/11 02:57:30;;;;;;;14.90;8.15;;;14.10;75.10;;;;;;7372350;19;20015;-81
2022/11/11 03:00:01;;;;;;;16.52;8.05;;;14.10;75.10;;;;;;7371769;19;20101;-80
2022/11/11 03:02:30;;;;;;;;;;;14.10;75.10;;;;;;7371695;19;20049;-81
2022/11/11 03:04:59;;;;;;;14.85;7.72;;;14.20;75.20;;;;;;7372018;19;19933;-81
2022/11/11 03:07:28;;;;;;;16.75;8.18;;;14.10;74.70;;;;;;7393884;19;20453;-81
2022/11/11 03:09:57;;;;;;;15.13;8.07;;;14.10;74.80;;;;;;7370386;19;20107;-81
2022/11/11 03:12:28;;;;;;;24.48;8.48;;;14.00;75.00;;;;;;7370467;19;20093;-81
2022/11/11 03:14:57;;;;;;;19.40;9.10;;;14.00;75.00;;;;;;7371653;19;20015;-80
2022/11/11 03:23:02;;;;;;;19.13;8.35;;;13.90;75.00;;;;;;7380429;19;20049;-81
2022/11/11 03:25:39;;;;;;;21.02;8.88;;;13.90;75.40;;;;;;7398499;19;20014;-81
2022/11/11 03:28:13;;;;;;;19.75;8.70;;;13.90;75.20;;;;;;7377487;19;20041;-82
2022/11/11 03:30:43;;;;;;;16.98;8.70;;;13.90;75.40;;;;;;7378948;19;20014;-81
2022/11/11 03:33:13;;;;;;;19.98;8.38;;;13.90;75.50;;;;;;7379374;19;20078;-81
2022/11/11 03:35:42;;;;;;;18.42;8.55;;;14.00;75.60;;;;;;7376654;19;20086;-82
2022/11/11 03:41:00;;;;;;;26.92;8.15;;;14.00;75.50;;;;;;7375714;19;20014;-81
2022/11/11 03:43:35;;;;;;;23.83;10.15;;;14.00;75.30;;;;;;7399389;19;20078;-81
2022/11/11 03:46:06;;;;;;;19.65;10.10;;;14.00;75.30;;;;;;7377963;19;20031;-81
2022/11/11 03:48:36;;;;;;;24.17;10.85;;;14.00;75.00;;;;;;7377229;19;20113;-81
2022/11/11 03:51:04;;;;;;;24.95;10.15;;;14.00;75.00;;;;;;7380093;19;20114;-81
2022/11/11 03:53:33;;;;;;;23.08;9.55;;;14.00;74.90;;;;;;7378706;19;20048;-81
2022/11/11 03:56:02;;;;;;;21.73;8.70;;;14.00;75.00;;;;;;7400037;19;20046;-80
2022/11/11 03:58:33;;;;;;;19.15;9.00;;;14.00;75.00;;;;;;7426412;19;20569;-81
2022/11/11 04:10:21;;;;;;;26.15;9.70;;;14.00;75.00;;;;;;7392680;19;20010;-81
2022/11/11 04:12:02;;;;;;;17.02;8.45;;;14.10;74.80;;;;;;7375397;19;20166;-81
2022/11/11 04:17:16;;;;;;;20.40;8.23;;;14.00;74.40;;;;;;7377307;19;20022;-82
2022/11/11 04:22:26;;;;;;;16.52;8.00;;;13.80;75.30;;;;;;7398168;19;20043;-81
2022/11/11 04:27:35;;;;;;;19.60;7.95;;;13.80;75.00;;;;;;7375573;19;20011;-81
2022/11/11 04:30:05;;;;;;;17.00;7.60;;;13.70;75.10;;;;;;7373990;19;20032;-81
2022/11/11 04:32:37;;;;;;;14.85;7.90;;;13.80;75.20;;;;;;7370246;19;20022;-82
2022/11/11 04:35:08;;;;;;;16.52;7.88;;;13.80;75.20;;;;;;7372101;19;20025;-81
2022/11/11 04:37:39;;;;;;;18.90;8.48;;;13.80;75.20;;;;;;7396707;19;20018;-81
2022/11/11 04:42:54;;;;;;;13.77;7.47;;;13.90;75.10;;;;;;7375805;19;20567;-81
2022/11/11 04:45:30;;;;;;;15.05;8.30;;;14.00;75.20;;;;;;7377756;19;20022;-81
2022/11/11 04:48:00;;;;;;;20.08;8.02;;;14.00;75.10;;;;;;7377909;19;20319;-81
2022/11/11 04:50:30;;;;;;;17.50;8.00;;;14.00;75.10;;;;;;7374989;19;20513;-81
2022/11/11 04:52:59;;;;;;;21.85;9.07;;;14.00;75.10;;;;;;7373530;19;20015;-80
2022/11/11 04:58:19;;;;;;;16.35;8.43;;;14.00;75.20;;;;;;7373818;19;20018;-82
2022/11/11 05:00:53;;;;;;;21.27;8.85;;;14.00;75.30;;;;;;7373927;19;20501;-82
2022/11/11 05:03:22;;;;;;;16.38;8.40;;;14.00;75.50;;;;;;7374009;19;20074;-82
2022/11/11 05:11:15;;;;;;;13.23;7.45;;;14.00;75.20;;;;;;7376699;19;20339;-80
2022/11/11 05:21:58;;;;;;;17.17;7.43;;;14.00;76.00;;;;;;7370918;19;20039;-80
2022/11/11 05:27:08;;;;;;;14.10;7.93;;;14.10;75.20;;;;;;7372402;19;20043;-80
2022/11/11 05:29:37;;;;;;;17.42;8.07;;;14.10;75.20;;;;;;7372246;19;20019;-80
2022/11/11 05:32:09;;;;;;;18.42;7.80;;;14.10;75.10;;;;;;7370729;19;20140;-81
2022/11/11 05:34:38;;;;;;;13.20;7.35;;;14.00;75.00;;;;;;7395251;19;20697;-81
2022/11/11 05:37:07;;;;;;;22.23;7.40;;;14.10;74.90;;;;;;7373490;19;20047;-81
2022/11/11 05:39:35;;;;;;;17.42;7.68;;;14.00;75.00;;;;;;7373365;19;20078;-81
2022/11/11 05:42:04;;;;;;;15.93;7.53;;;14.00;75.10;;;;;;7374611;19;20014;-81
2022/11/11 05:44:36;;;;;;;13.80;7.05;;;14.10;75.20;;;;;;7373925;19;20039;-80
2022/11/11 05:47:05;;;;;;;14.40;6.75;;;14.10;75.20;;;;;;7373375;19;20128;-81
2022/11/11 05:49:36;;;;;;;15.88;6.30;;;14.10;75.00;;;;;;7395996;19;20344;-80
2022/11/11 05:52:06;;;;;;;14.25;6.20;;;14.00;75.00;;;;;;7372795;19;20581;-81
2022/11/11 05:54:35;;;;;;;12.95;6.45;;;14.00;75.00;;;;;;7372858;19;20018;-80
2022/11/11 05:57:04;;;;;;;16.17;6.03;;;14.00;74.80;;;;;;7374138;19;20068;-80
2022/11/11 05:59:32;;;;;;;16.35;6.20;;;14.10;74.90;;;;;;7373171;19;20376;-80
2022/11/11 06:02:01;;;;;;;17.00;7.07;;;14.00;74.90;;;;;;7373159;19;20478;-80
2022/11/11 06:04:30;;;;;;;13.43;7.18;;;14.10;75.00;;;;;;7397093;19;20483;-80
2022/11/11 06:07:01;;;;;;;16.35;7.60;;;14.00;75.00;;;;;;7375157;19;20014;-80
2022/11/11 06:09:30;;;;;;;12.32;7.45;;;14.00;75.10;;;;;;7373066;19;20040;-80
2022/11/11 06:11:59;;;;;;;16.05;8.50;;;14.00;75.20;;;;;;7371172;19;20070;-81
2022/11/11 06:14:28;;;;;;;14.88;6.97;;;14.00;75.20;;;;;;7374331;19;20014;-80
2022/11/11 06:16:56;;;;;;;10.75;6.15;;;14.00;75.10;;;;;;7371687;19;20081;-81
2022/11/11 06:19:25;;;;;;;15.02;6.43;;;14.00;75.00;;;;;;7393505;19;20087;-81
2022/11/11 06:22:02;;;;;;;12.02;5.28;;;14.00;74.90;;;;;;7373095;19;20018;-81
2022/11/11 06:24:34;;;;;;;10.90;5.93;;;14.00;75.50;;;;;;7373453;19;20050;-81
2022/11/11 06:27:00;;;;;;;10.52;5.50;;;14.00;74.50;;;;;;7373528;19;20015;-81
2022/11/11 06:29:28;;;;;;;10.50;6.10;;;14.00;74.40;;;;;;7351658;19;20065;-79
2022/11/11 06:31:57;;;;;;;17.02;6.25;;;14.00;74.50;;;;;;7398138;19;20094;-80
2022/11/11 06:34:26;;;;;;;12.77;6.60;;;14.00;74.50;;;;;;7405701;19;20434;-82
2022/11/11 06:36:55;;;;;;;10.25;6.07;;;14.10;74.40;;;;;;7398347;19;20015;-82
2022/11/11 06:39:23;;;;;;;14.88;6.72;;;14.00;74.50;;;;;;7374505;19;20014;-81
2022/11/11 06:41:55;;;;;;;12.25;6.85;;;14.00;74.50;;;;;;7400316;19;20015;-82
2022/11/11 06:44:23;;;;;;;11.80;6.30;;;14.00;74.60;;;;;;7399464;19;20340;-80
2022/11/11 06:46:52;;;;;;;15.40;6.25;;;14.00;74.40;;;;;;7401981;19;20019;-82
2022/11/11 06:49:21;;;;;;;14.10;6.35;;;14.00;74.70;;;;;;7398632;19;20014;-81
2022/11/11 06:51:51;;;;;;;16.52;7.13;;;14.00;74.60;;;;;;7397734;19;20035;-82
2022/11/11 06:54:19;;;;;;;10.90;5.78;;;14.00;74.60;;;;;;7397592;19;20011;-82
2022/11/11 06:56:49;;;;;;;22.45;7.95;;;14.00;74.70;;;;;;7399896;19;20122;-82
2022/11/11 06:59:21;;;;;;;11.55;6.50;;;14.00;74.50;;;;;;7350562;19;20094;-80
2022/11/11 07:01:51;;;;;;;11.45;6.28;;;14.00;74.70;;;;;;7403545;19;20027;-81
2022/11/11 07:04:20;;;;;;;10.15;6.15;;;14.10;74.60;;;;;;7409987;19;20079;-81
2022/11/11 07:06:49;;;;;;;12.77;6.22;;;14.10;74.60;;;;;;7384145;19;20018;-80
2022/11/11 07:09:18;;;;;;;11.55;6.45;;;14.10;74.60;;;;;;7380535;19;20074;-81
2022/11/11 07:11:46;;;;;;;13.82;6.97;;;14.10;74.70;;;;;;7405692;19;20018;-81
2022/11/11 07:14:15;;;;;;;12.70;6.75;;;14.10;74.80;;;;;;7377921;19;20011;-81
2022/11/11 07:16:48;;;;;;;12.73;6.95;;;14.10;74.90;;;;;;7366929;19;20014;-81
2022/11/11 07:19:17;;;;;;;15.38;7.10;;;14.10;75.00;;;;;;7378621;19;20101;-80
2022/11/11 07:21:46;;;;;;;11.73;6.78;;;14.10;75.00;;;;;;7374244;19;20021;-79
2022/11/11 07:24:15;;;;;;;13.30;6.88;;;14.10;75.00;;;;;;7401830;19;20087;-80
2022/11/11 07:26:43;;;;;;;14.27;7.60;;;14.10;75.70;;;;;;7388464;19;20023;-80
2022/11/11 07:29:14;;;;;;;15.63;6.95;;;14.00;75.00;;;;;;7402576;19;20046;-80
2022/11/11 07:31:42;;;;;;;13.88;7.80;;;14.00;75.10;;;;;;7407839;19;20042;-80
2022/11/11 07:34:14;;;;;;;17.83;7.43;;;14.00;75.10;;;;;;7376921;19;20568;-83
2022/11/11 07:36:42;;;;;;;14.27;7.13;;;14.00;75.00;;;;;;7391251;19;20019;-82
2022/11/11 07:39:11;;;;;;;15.55;8.05;;;14.10;75.10;;;;;;7402910;19;20018;-82
2022/11/11 07:41:40;;;;;;;12.00;6.90;;;14.10;75.10;;;;;;7366719;19;20058;-82
2022/11/11 07:44:08;;;;;;;16.38;6.82;;;14.10;75.20;;;;;;7377809;19;20014;-82
2022/11/11 07:46:37;;;;;;;14.07;6.78;;;14.10;75.30;;;;;;7401798;19;20021;-82
2022/11/11 07:49:06;;;;;;;13.82;7.63;;;14.10;75.20;;;;;;7408093;19;20018;-82
2022/11/11 07:51:37;;;;;;;16.27;8.18;;;14.10;75.20;;;;;;7408354;19;20019;-83
2022/11/11 07:54:06;;;;;;;17.65;7.35;;;14.00;75.00;;;;;;7404321;19;20007;-82
2022/11/11 07:56:35;;;;;;;14.88;7.15;;;14.00;75.20;;;;;;7404323;19;20042;-82
2022/11/11 07:59:03;;;;;;;11.68;6.90;;;14.10;75.40;;;;;;7407471;19;20018;-81
2022/11/11 08:01:32;;;;;;;15.90;7.53;;;14.10;75.50;;;;;;7409214;19;20031;-82
2022/11/11 08:04:01;;;;;;;13.68;6.30;;;14.00;75.40;;;;;;7402731;19;20011;-81
2022/11/11 08:06:29;;;;;;;13.75;6.47;;;14.10;75.50;;;;;;7404593;19;20010;-80
2022/11/11 08:09:01;;;;;;;18.95;5.93;;;14.10;75.20;;;;;;7400038;19;20024;-81
2022/11/11 08:14:13;;;;;;;12.45;6.03;;;14.20;75.00;;;;;;7405593;19;19958;-81
2022/11/11 08:16:42;;;;;;;12.90;5.78;;;14.10;74.60;;;;;;7402267;19;20031;-81
2022/11/11 08:19:11;;;;;;;10.27;5.57;;;14.10;74.70;;;;;;7405890;19;20026;-81
2022/11/11 08:21:40;;;;;;;11.05;6.20;;;14.20;74.70;;;;;;7404511;19;20072;-82
2022/11/11 08:24:11;;;;;;;12.05;6.22;;;14.20;74.60;;;;;;7402470;19;20018;-80
2022/11/11 08:26:40;;;;;;;11.65;5.80;;;14.20;74.60;;;;;;7402654;19;20617;-81
2022/11/11 08:29:08;;;;;;;11.15;6.05;;;14.20;74.60;;;;;;7402441;19;20585;-81
2022/11/11 08:31:38;;;;;;;13.55;5.82;;;14.20;74.60;;;;;;7402714;19;20018;-81
2022/11/11 08:34:07;;;;;;;15.55;6.30;;;14.30;74.70;;;;;;7401078;19;20010;-81
2022/11/11 08:36:36;;;;;;;10.52;5.85;;;14.30;74.70;;;;;;7404070;19;20031;-81
2022/11/11 08:41:32;;;;;;;13.10;6.35;;;14.30;74.50;;;;;;7403193;19;20098;-81
2022/11/11 08:44:01;;;;;;;14.40;6.75;;;14.40;74.50;;;;;;7405993;19;20082;-81
2022/11/11 08:46:30;;;;;;;16.10;7.68;;;14.40;74.40;;;;;;7402385;19;20451;-81
2022/11/11 08:48:58;;;;;;;15.95;7.95;;;14.40;74.40;;;;;;7406269;19;20035;-81
2022/11/11 08:51:27;;;;;;;14.88;7.35;;;14.40;74.50;;;;;;7404657;19;20416;-81
2022/11/11 08:53:56;;;;;;;15.38;8.10;;;14.30;74.60;;;;;;7406466;19;20006;-81
2022/11/11 08:56:24;;;;;;;17.17;8.10;;;14.30;74.70;;;;;;7403708;19;20022;-81
2022/11/11 08:58:56;;;;;;;15.75;7.68;;;14.30;74.70;;;;;;7402763;19;20458;-82
2022/11/11 09:01:24;;;;;;;16.27;6.63;;;14.30;74.80;;;;;;7402176;19;20401;-82
2022/11/11 09:03:53;;;;;;;12.13;6.65;;;14.30;74.70;;;;;;7404648;19;20018;-81
2022/11/11 09:06:22;;;;;;;12.90;6.03;;;14.30;74.60;;;;;;7402230;19;20093;-81
2022/11/11 09:08:51;;;;;;;14.40;7.15;;;14.30;74.80;;;;;;7390854;19;20473;-81
2022/11/11 09:11:19;;;;;;;14.80;7.20;;;14.30;74.90;;;;;;7400529;19;20342;-82
2022/11/11 09:13:49;;;;;;;15.40;6.82;;;14.30;74.70;;;;;;7400019;19;20522;-81
2022/11/11 09:16:21;;;;;;;11.18;5.93;;;14.30;74.70;;;;;;7401882;19;20011;-81
2022/11/11 09:18:49;;;;;;;;;;;14.40;74.90;;;;;;7403631;19;20010;-81
2022/11/11 09:21:18;;;;;;;15.70;6.68;;;14.50;74.90;;;;;;7400925;19;19994;-81
2022/11/11 09:23:47;;;;;;;14.07;7.50;;;14.50;75.30;;;;;;7402108;19;20098;-81
2022/11/11 09:26:16;;;;;;;15.38;7.18;;;14.50;74.60;;;;;;7404517;19;20038;-83
2022/11/11 09:28:44;;;;;;;14.18;6.97;;;14.50;74.60;;;;;;7403783;19;20039;-82
2022/11/11 09:31:16;;;;;;;21.17;9.02;;;14.50;74.70;;;;;;7402406;19;20018;-82
2022/11/11 09:33:50;;;;;;;;;;;14.50;74.90;;;;;;7399565;19;20089;-81
2022/11/11 09:36:19;;;;;;;12.57;7.07;;;14.60;74.90;;;;;;7399666;19;19935;-81
2022/11/11 09:38:47;;;;;;;13.32;6.68;;;14.60;74.30;;;;;;7401775;19;20019;-82
2022/11/11 09:41:22;;;;;;;17.38;6.57;;;14.60;74.30;;;;;;7398776;19;20019;-82
2022/11/11 09:43:56;;;;;;;16.55;7.28;;;14.60;74.00;;;;;;7399822;19;20030;-80
2022/11/11 09:46:35;;;;;;;14.60;7.85;;;14.60;74.00;;;;;;7401648;19;20025;-81
2022/11/11 09:49:27;;;;;;;12.88;7.20;;;14.60;74.00;;;;;;7398316;19;20969;-83
2022/11/11 09:52:00;;;;;;;13.65;6.50;;;14.60;73.80;;;;;;7401090;19;20059;-81
2022/11/11 09:54:35;;;;;;;11.98;6.40;;;14.60;73.80;;;;;;7403394;19;20014;-80
2022/11/11 09:57:12;;;;;;;12.27;6.30;;;14.60;73.60;;;;;;7395902;19;20026;-80
2022/11/11 09:59:47;;;;;;;15.48;6.75;;;14.60;73.70;;;;;;7399088;19;20508;-80
2022/11/11 10:02:32;;;;;;;12.65;6.20;;;14.60;73.90;;;;;;7403436;19;20014;-80
2022/11/11 10:05:10;;;;;;;15.65;8.57;;;14.70;74.00;;;;;;7409283;19;20024;-80
2022/11/11 10:07:42;;;;;;;32.78;16.67;;;14.70;74.00;;;;;;7400695;19;20031;-81
2022/11/11 10:10:25;;;;;;;33.97;16.58;;;14.70;74.30;;;;;;7400912;19;20058;-80
2022/11/11 10:12:57;;;;;;;28.20;13.20;;;14.70;74.20;;;;;;7400970;19;20039;-81
2022/11/11 10:15:31;;;;;;;36.00;14.80;;;14.80;73.80;;;;;;7400063;19;20019;-81
2022/11/11 10:18:16;;;;;;;45.75;22.13;;;14.80;73.50;;;;;;7401010;19;20043;-81
2022/11/11 10:20:56;;;;;;;36.58;18.70;;;14.80;73.50;;;;;;7400734;19;20018;-82
2022/11/11 10:23:29;;;;;;;23.65;12.07;;;14.80;73.30;;;;;;7399750;19;20018;-81
2022/11/11 10:26:01;;;;;;;20.02;8.15;;;14.80;73.30;;;;;;7397991;19;20031;-81
2022/11/11 10:28:34;;;;;;;13.93;6.97;;;14.70;73.30;;;;;;7400372;19;20018;-82
2022/11/11 10:31:04;;;;;;;18.95;10.25;;;14.70;73.40;;;;;;7396320;19;20347;-81
2022/11/11 10:33:44;;;;;;;20.15;10.38;;;14.70;73.40;;;;;;7399155;19;20018;-81
2022/11/11 10:36:19;;;;;;;16.55;8.82;;;14.70;73.50;;;;;;7400016;19;20058;-80
2022/11/11 10:38:54;;;;;;;27.75;11.40;;;14.80;73.60;;;;;;7400107;19;20027;-81
2022/11/11 10:41:28;;;;;;;13.75;7.78;;;14.80;73.40;;;;;;7397658;19;20015;-82
2022/11/11 10:43:57;;;;;;;15.80;7.93;;;14.90;73.30;;;;;;7400080;19;20025;-81
2022/11/11 10:46:31;;;;;;;27.38;11.45;;;14.90;73.00;;;;;;7399457;19;20103;-81
2022/11/11 10:49:05;;;;;;;31.45;14.40;;;14.90;73.00;;;;;;7395392;19;20725;-81
2022/11/11 10:51:43;;;;;;;21.67;10.02;;;14.90;73.80;;;;;;7395934;19;20521;-81
2022/11/11 10:54:17;;;;;;;13.07;6.85;;;15.00;73.00;;;;;;7401389;19;20022;-81
2022/11/11 10:56:52;;;;;;;14.65;6.95;;;15.00;72.70;;;;;;7399796;19;20094;-81
2022/11/11 10:59:24;;;;;;;14.23;7.07;;;15.10;72.50;;;;;;7395321;19;20019;-81
2022/11/11 11:01:59;;;;;;;28.70;12.70;;;15.00;72.40;;;;;;7398081;19;20090;-80
2022/11/11 11:04:35;;;;;;;23.83;11.23;;;15.00;72.30;;;;;;7395270;19;20023;-81
2022/11/11 11:07:10;;;;;;;27.52;10.57;;;15.10;72.60;;;;;;7393773;19;20014;-81
2022/11/11 11:09:45;;;;;;;12.82;6.55;;;15.10;72.50;;;;;;7391409;19;20022;-80
2022/11/11 11:12:18;;;;;;;17.25;6.40;;;15.10;72.10;;;;;;7394355;19;20026;-80
2022/11/11 11:14:53;;;;;;;16.27;7.03;;;15.20;72.20;;;;;;7399376;19;20010;-81
2022/11/11 11:17:27;;;;;;;11.55;6.03;;;15.20;72.10;;;;;;7398120;19;20014;-81
2022/11/11 11:20:11;;;;;;;10.18;6.05;;;15.30;71.90;;;;;;7399751;19;20026;-81
2022/11/11 11:22:58;;;;;;;15.32;5.68;;;15.30;71.40;;;;;;7397327;19;20019;-81
2022/11/11 11:25:29;;;;;;;12.77;6.20;;;15.30;70.80;;;;;;7396391;19;20014;-81
2022/11/11 11:28:09;;;;;;;9.00;5.35;;;15.30;70.80;;;;;;7397725;19;20025;-81
2022/11/11 11:30:37;;;;;;;9.95;6.00;;;15.30;71.10;;;;;;7396250;19;20022;-81
2022/11/11 11:33:09;;;;;;;11.02;5.57;;;15.30;71.10;;;;;;7393886;19;20029;-80
2022/11/11 11:35:38;;;;;;;;;;;15.30;71.10;;;;;;7396495;19;20019;-80
2022/11/11 11:38:12;;;;;;;14.00;6.60;;;15.40;71.10;;;;;;7399335;19;19990;-81
2022/11/11 11:40:49;;;;;;;11.90;5.60;;;15.40;70.70;;;;;;7395479;19;20018;-80
2022/11/11 11:43:33;;;;;;;13.13;5.60;;;15.40;70.80;;;;;;7400961;19;20014;-81
2022/11/11 11:46:04;;;;;;;14.57;5.78;;;15.40;70.90;;;;;;7404822;19;20051;-80
2022/11/11 11:48:46;;;;;;;11.38;6.18;;;15.40;70.40;;;;;;7405360;19;20039;-80
2022/11/11 11:51:25;;;;;;;13.50;6.60;;;15.20;70.50;;;;;;7403616;19;20086;-81
2022/11/11 11:54:14;;;;;;;10.32;5.53;;;15.10;70.70;;;;;;7405393;19;20019;-80
2022/11/11 11:56:47;;;;;;;11.07;5.63;;;15.00;71.40;;;;;;7405067;19;20014;-80
2022/11/11 11:59:24;;;;;;;13.70;5.88;;;15.10;71.70;;;;;;7402595;19;20015;-80
2022/11/11 12:02:01;;;;;;;14.63;5.78;;;15.10;71.90;;;;;;7400595;19;20035;-81
2022/11/11 12:04:58;;;;;;;18.17;5.93;;;15.20;71.90;;;;;;7398369;19;20485;-80
2022/11/11 12:07:41;;;;;;;13.55;6.30;;;15.10;71.50;;;;;;7404637;19;20027;-81
2022/11/11 12:10:25;;;;;;;11.90;5.82;;;15.10;71.30;;;;;;7402623;19;20018;-81
2022/11/11 12:13:03;;;;;;;15.60;5.90;;;15.10;71.40;;;;;;7398056;19;20318;-79
2022/11/11 12:15:38;;;;;;;12.15;5.80;;;15.10;71.60;;;;;;7407394;19;20035;-79
2022/11/11 12:18:37;;;;;;;12.95;6.25;;;15.00;71.40;;;;;;7421687;19;20029;-88
2022/11/11 12:21:13;;;;;;;10.05;5.85;;;15.10;71.90;;;;;;7414759;19;20023;-86
2022/11/11 12:24:05;;;;;;;13.50;5.78;;;15.20;72.20;;;;;;7414885;19;20014;-85
2022/11/11 12:26:47;;;;;;;20.20;7.60;;;15.40;72.20;;;;;;7417757;19;20022;-85
2022/11/11 12:29:23;;;;;;;;;;;15.60;71.70;;;;;;7419313;19;20019;-86
2022/11/11 12:32:05;;;;;;;20.42;8.02;;;15.90;71.30;;;;;;7418305;19;19914;-85
2022/11/11 12:34:53;;;;;;;18.70;8.75;;;15.90;70.50;;;;;;7414831;19;20023;-83
2022/11/11 12:37:34;;;;;;;15.48;7.00;;;15.80;70.10;;;;;;7410193;19;20038;-85
2022/11/11 12:40:21;;;;;;;11.65;6.38;;;15.80;70.20;;;;;;7408840;19;20019;-84
2022/11/11 12:43:04;;;;;;;11.40;5.35;;;15.90;70.40;;;;;;7404568;19;20086;-85
2022/11/11 12:45:42;;;;;;;9.23;5.70;;;15.90;69.90;;;;;;7403945;19;20026;-85
2022/11/11 12:48:30;;;;;;;11.57;6.15;;;15.80;69.60;;;;;;7405944;19;20038;-84
2022/11/11 12:51:08;;;;;;;11.02;6.32;;;15.80;69.70;;;;;;7420449;19;20094;-84
2022/11/11 12:53:46;;;;;;;13.57;6.97;;;15.90;70.20;;;;;;7419155;19;20015;-84
2022/11/11 12:56:26;;;;;;;18.30;7.80;;;15.90;70.40;;;;;;7404762;19;20014;-84
2022/11/11 12:59:03;;;;;;;13.25;7.65;;;15.90;70.20;;;;;;7401459;19;20094;-83
2022/11/11 13:01:48;;;;;;;13.00;6.38;;;16.00;70.30;;;;;;7406595;19;20011;-84
2022/11/11 13:04:37;;;;;;;12.88;6.93;;;16.00;70.40;;;;;;7403803;19;20023;-84
2022/11/11 13:07:29;;;;;;;16.60;8.02;;;16.10;70.20;;;;;;7402602;19;20023;-84
2022/11/11 13:10:10;;;;;;;14.00;8.18;;;16.10;69.30;;;;;;7407607;19;20011;-85
2022/11/11 13:12:45;;;;;;;20.87;7.97;;;16.10;69.40;;;;;;7404902;19;20014;-84
2022/11/11 13:15:20;;;;;;;17.17;8.68;;;16.20;69.80;;;;;;7404206;19;20017;-86
2022/11/11 13:17:48;;;;;;;21.35;9.68;;;16.20;69.60;;;;;;7403620;19;20022;-86
2022/11/11 13:20:28;;;;;;;26.27;10.30;;;16.30;69.60;;;;;;7403992;19;20046;-86
2022/11/11 13:22:56;;;;;;;28.50;10.10;;;16.40;69.40;;;;;;7404060;19;20090;-86
2022/11/11 13:25:31;;;;;;;23.50;10.23;;;16.50;69.20;;;;;;7402333;19;20460;-87
2022/11/11 13:28:05;;;;;;;25.88;10.00;;;16.50;68.90;;;;;;7403891;19;20015;-85
2022/11/11 13:30:47;;;;;;;18.17;9.10;;;16.60;68.90;;;;;;7401333;19;20074;-86
2022/11/11 13:33:18;;;;;;;18.30;8.93;;;16.70;68.80;;;;;;7404112;19;20010;-86
2022/11/11 13:35:50;;;;;;;21.52;8.95;;;16.80;68.70;;;;;;7405626;19;20026;-86
2022/11/11 13:38:31;;;;;;;15.07;7.68;;;16.90;68.30;;;;;;7402844;19;20035;-86
2022/11/11 13:41:04;;;;;;;13.50;5.72;;;16.90;67.90;;;;;;7404677;19;20013;-87
2022/11/11 13:43:36;;;;;;;11.82;5.88;;;17.00;67.70;;;;;;7401266;19;20015;-86
2022/11/11 13:46:08;;;;;;;13.63;5.68;;;17.00;67.40;;;;;;7404431;19;20039;-85
2022/11/11 13:48:40;;;;;;;10.95;5.88;;;17.10;67.50;;;;;;7403135;19;20026;-86
2022/11/11 13:51:24;;;;;;;16.75;5.63;;;17.10;67.20;;;;;;7405454;19;20018;-86
2022/11/11 13:53:53;;;;;;;13.18;5.55;;;17.10;67.00;;;;;;7402888;19;20022;-85
2022/11/11 13:56:27;;;;;;;11.38;5.78;;;17.20;66.70;;;;;;7404841;19;20018;-86
2022/11/11 13:58:58;;;;;;;10.18;5.88;;;17.20;66.70;;;;;;7403640;19;20031;-85
2022/11/11 14:01:35;;;;;;;10.48;5.47;;;17.20;66.50;;;;;;7406798;19;20014;-86
2022/11/11 14:04:07;;;;;;;12.10;6.30;;;17.20;66.70;;;;;;7410297;19;20025;-86
2022/11/11 14:06:50;;;;;;;13.95;6.03;;;17.20;66.30;;;;;;7408641;19;20018;-85
2022/11/11 14:09:48;;;;;;;11.52;6.53;;;17.10;66.30;;;;;;7402971;19;20015;-88
2022/11/11 14:12:37;;;;;;;15.55;6.78;;;17.00;66.80;;;;;;7400935;19;20074;-85
2022/11/11 14:15:08;;;;;;;14.70;6.53;;;17.00;67.00;;;;;;7413813;19;20031;-85
2022/11/11 14:17:46;;;;;;;13.02;6.00;;;17.00;67.00;;;;;;7418077;19;20101;-87
2022/11/11 14:20:40;;;;;;;11.77;5.85;;;17.00;67.20;;;;;;7402046;19;20027;-85
2022/11/11 14:23:36;;;;;;;11.00;6.38;;;17.00;67.30;;;;;;7401676;19;20018;-86
2022/11/11 14:26:28;;;;;;;13.30;5.90;;;16.90;67.30;;;;;;7402006;19;20014;-86